Time;durP1;ratioP1;P1;durP2;ratioP2;P2;SDS_P1;SDS_P2;PMS_P1;PMS_P2;Temp;Humidity;BMP_temperature;BMP_pressure;BME280_temperature;BME280_humidity;BME280_pressure;Samples;Min_cycle;Max_cycle;Signal;HPM_P1;HPM_P2
2022/05/03 00:02:05;;;;;;;6.57;5.40;;;10.30;99.90;;;;;;5001446;28;20174;-43
2022/05/03 00:05:01;;;;;;;8.73;5.70;;;10.30;99.90;;;;;;5001792;28;20193;-43
2022/05/03 00:07:28;;;;;;;9.27;6.13;;;10.20;99.90;;;;;;4996843;28;20197;-42
2022/05/03 00:10:20;;;;;;;9.30;6.63;;;10.20;99.90;;;;;;4996989;28;20638;-40
2022/05/03 00:13:02;;;;;;;8.93;6.30;;;10.10;99.90;;;;;;4996660;28;20232;-41
2022/05/03 00:15:31;;;;;;;7.73;5.87;;;10.10;99.90;;;;;;4997253;28;20216;-40
2022/05/03 00:17:57;;;;;;;8.97;6.43;;;10.00;99.90;;;;;;4996279;28;20267;-43
2022/05/03 00:20:24;;;;;;;7.33;5.87;;;10.00;99.90;;;;;;4996391;28;20172;-40
2022/05/03 00:22:50;;;;;;;7.30;5.23;;;10.00;99.90;;;;;;4996652;28;20248;-41
2022/05/03 00:25:16;;;;;;;7.87;6.00;;;9.90;99.90;;;;;;4996283;28;20189;-42
2022/05/03 00:27:42;;;;;;;6.23;5.60;;;10.00;99.90;;;;;;4996676;28;20547;-42
2022/05/03 00:30:09;;;;;;;7.43;6.10;;;9.90;99.90;;;;;;4996754;28;20177;-41
2022/05/03 00:32:35;;;;;;;7.47;5.70;;;9.90;99.90;;;;;;4996510;28;20723;-42
2022/05/03 00:35:02;;;;;;;9.97;6.03;;;9.90;99.90;;;;;;4996296;28;20181;-41
2022/05/03 00:37:28;;;;;;;8.20;6.50;;;9.80;99.90;;;;;;4994760;28;20300;-42
2022/05/03 00:39:54;;;;;;;13.60;6.10;;;9.80;99.90;;;;;;4995967;28;20189;-40
2022/05/03 00:42:26;;;;;;;8.00;6.63;;;9.80;99.90;;;;;;4996134;28;20279;-41
2022/05/03 00:45:04;;;;;;;13.50;6.17;;;9.80;99.90;;;;;;4995922;28;20188;-41
2022/05/03 00:47:48;;;;;;;8.07;6.20;;;9.70;99.90;;;;;;4995834;28;20205;-41
2022/05/03 00:50:25;;;;;;;8.37;5.80;;;9.70;99.90;;;;;;4996050;28;20184;-42
2022/05/03 00:53:00;;;;;;;13.30;6.37;;;9.70;99.90;;;;;;4995659;28;20283;-40
2022/05/03 00:55:43;;;;;;;7.37;5.50;;;9.70;99.90;;;;;;5010439;28;20258;-41
2022/05/03 00:58:30;;;;;;;8.50;5.90;;;9.60;99.90;;;;;;4994268;28;20207;-41
2022/05/03 01:01:03;;;;;;;10.13;6.30;;;9.60;99.90;;;;;;4995841;28;20164;-40
2022/05/03 01:03:48;;;;;;;7.63;5.97;;;9.50;99.90;;;;;;4995912;28;20617;-38
2022/05/03 01:06:50;;;;;;;8.90;6.47;;;9.50;99.90;;;;;;4995341;28;20640;-41
2022/05/03 01:09:24;;;;;;;9.47;6.33;;;9.50;99.90;;;;;;4995579;28;20277;-40
2022/05/03 01:12:26;;;;;;;6.73;5.63;;;9.50;99.90;;;;;;4995037;28;20236;-41
2022/05/03 01:15:08;;;;;;;8.77;6.33;;;9.50;99.90;;;;;;4995923;28;20576;-42
2022/05/03 01:17:58;;;;;;;12.50;5.77;;;9.40;99.90;;;;;;4995050;28;20243;-39
2022/05/03 01:20:56;;;;;;;17.53;6.30;;;9.30;99.90;;;;;;4995473;28;20197;-40
2022/05/03 01:24:00;;;;;;;11.23;6.00;;;9.30;99.90;;;;;;4980710;28;20521;-42
2022/05/03 01:26:37;;;;;;;9.23;6.30;;;9.40;99.90;;;;;;4986810;28;20199;-40
2022/05/03 01:29:31;;;;;;;7.60;6.10;;;9.30;99.90;;;;;;4995092;28;20502;-40
2022/05/03 01:32:02;;;;;;;7.33;5.53;;;9.30;99.90;;;;;;4995314;28;20172;-39
2022/05/03 01:34:29;;;;;;;9.77;5.83;;;9.30;99.90;;;;;;4994973;28;20161;-40
2022/05/03 01:37:25;;;;;;;10.20;5.73;;;9.20;99.90;;;;;;4994816;28;20195;-41
2022/05/03 01:40:07;;;;;;;11.60;6.00;;;9.20;99.90;;;;;;4994853;28;20297;-40
2022/05/03 01:42:54;;;;;;;8.53;6.40;;;9.20;99.90;;;;;;4995907;28;20521;-41
2022/05/03 01:45:27;;;;;;;9.27;6.30;;;9.10;99.90;;;;;;4995125;28;20690;-40
2022/05/03 01:48:08;;;;;;;11.00;5.87;;;9.10;99.90;;;;;;4994555;28;20208;-39
2022/05/03 01:51:09;;;;;;;9.87;6.30;;;9.00;99.90;;;;;;4994985;28;20170;-40
2022/05/03 01:53:45;;;;;;;9.00;5.97;;;9.00;99.90;;;;;;4994759;28;20192;-40
2022/05/03 01:56:29;;;;;;;9.03;5.73;;;9.00;99.90;;;;;;4995113;28;20188;-42
2022/05/03 01:59:06;;;;;;;9.07;5.90;;;9.00;99.90;;;;;;4994356;28;20190;-41
2022/05/03 02:01:41;;;;;;;7.47;5.57;;;8.90;99.90;;;;;;4994888;28;20179;-41
2022/05/03 02:04:33;;;;;;;9.97;5.87;;;8.90;99.90;;;;;;4994584;28;20190;-41
2022/05/03 02:07:25;;;;;;;9.53;6.30;;;8.90;99.90;;;;;;4994680;28;20206;-40
2022/05/03 02:10:07;;;;;;;8.27;6.30;;;8.90;99.90;;;;;;4994608;28;20255;-39
2022/05/03 02:12:33;;;;;;;10.27;6.20;;;8.90;99.90;;;;;;4994609;28;20171;-40
2022/05/03 02:15:07;;;;;;;8.47;5.50;;;8.80;99.90;;;;;;4994255;28;20561;-39
2022/05/03 02:17:51;;;;;;;8.63;5.87;;;8.80;99.90;;;;;;4994044;28;20280;-38
2022/05/03 02:20:29;;;;;;;6.77;5.87;;;8.80;99.90;;;;;;4994543;28;20239;-39
2022/05/03 02:23:07;;;;;;;8.27;6.17;;;8.80;99.90;;;;;;4993732;28;20174;-40
2022/05/03 02:25:36;;;;;;;14.23;6.20;;;8.70;99.90;;;;;;4994653;28;20217;-41
2022/05/03 02:28:05;;;;;;;8.40;5.33;;;8.70;99.90;;;;;;4994102;28;20773;-40
2022/05/03 02:30:33;;;;;;;8.60;5.87;;;8.70;99.90;;;;;;4994516;28;20182;-40
2022/05/03 02:33:09;;;;;;;10.27;5.80;;;8.60;99.90;;;;;;4994158;28;20179;-41
2022/05/03 02:35:35;;;;;;;8.73;5.70;;;8.60;99.90;;;;;;4994265;28;20166;-40
2022/05/03 02:38:06;;;;;;;8.77;5.90;;;8.50;99.90;;;;;;4993896;28;20679;-41
2022/05/03 02:40:33;;;;;;;7.40;5.87;;;8.50;99.90;;;;;;4994104;28;20182;-39
2022/05/03 02:43:00;;;;;;;8.03;5.83;;;8.50;99.90;;;;;;4994568;28;20526;-38
2022/05/03 02:45:29;;;;;;;7.63;5.00;;;8.40;99.90;;;;;;4994108;28;20174;-40
2022/05/03 02:48:07;;;;;;;13.00;6.07;;;8.40;99.90;;;;;;4993998;28;20658;-42
2022/05/03 02:50:47;;;;;;;12.90;6.20;;;8.40;99.90;;;;;;4994027;28;20169;-41
2022/05/03 02:53:44;;;;;;;7.37;6.17;;;8.40;99.90;;;;;;4994248;28;20601;-42
2022/05/03 02:56:27;;;;;;;8.10;5.73;;;8.30;99.90;;;;;;4989927;28;20657;-40
2022/05/03 03:01:49;;;;;;;8.93;5.60;;;8.30;99.90;;;;;;5030796;28;20221;-42
2022/05/03 03:04:42;;;;;;;10.27;6.57;;;8.20;99.90;;;;;;5033257;28;20165;-42
2022/05/03 03:07:12;;;;;;;8.33;5.83;;;8.20;99.90;;;;;;5024875;28;20194;-41
2022/05/03 03:09:43;;;;;;;8.83;6.27;;;8.20;99.90;;;;;;4996417;28;20225;-40
2022/05/03 03:12:35;;;;;;;9.70;5.93;;;8.10;99.90;;;;;;5013471;28;20629;-41
2022/05/03 03:15:08;;;;;;;12.83;5.63;;;8.10;99.90;;;;;;5013807;28;20170;-41
2022/05/03 03:17:46;;;;;;;7.43;5.70;;;8.10;99.90;;;;;;5012021;28;20276;-42
2022/05/03 03:20:13;;;;;;;12.43;5.60;;;8.10;99.90;;;;;;5013329;28;20182;-40
2022/05/03 03:22:40;;;;;;;8.17;6.40;;;8.10;99.90;;;;;;5012098;28;20178;-40
2022/05/03 03:25:08;;;;;;;9.43;6.00;;;8.10;99.90;;;;;;5012065;28;20178;-41
2022/05/03 03:27:35;;;;;;;9.70;6.13;;;8.10;99.90;;;;;;5013572;28;20689;-41
2022/05/03 03:30:08;;;;;;;8.00;5.97;;;8.00;99.90;;;;;;5011938;28;20185;-41
2022/05/03 03:32:37;;;;;;;8.73;6.77;;;8.00;99.90;;;;;;5013581;28;20177;-41
2022/05/03 03:35:03;;;;;;;7.10;5.17;;;8.00;99.90;;;;;;5014828;28;20638;-44
2022/05/03 03:37:33;;;;;;;9.17;5.80;;;8.00;99.90;;;;;;5016855;28;20691;-41
2022/05/03 03:39:59;;;;;;;9.90;6.67;;;8.00;99.90;;;;;;5000845;28;20201;-43
2022/05/03 03:42:28;;;;;;;8.70;6.27;;;8.00;99.90;;;;;;5016955;28;20173;-41
2022/05/03 03:44:59;;;;;;;10.50;5.93;;;7.90;99.90;;;;;;5016378;28;20180;-42
2022/05/03 03:47:24;;;;;;;8.10;5.90;;;7.90;99.90;;;;;;5017410;28;20210;-40
2022/05/03 03:49:51;;;;;;;7.63;6.10;;;7.90;99.90;;;;;;5017099;28;20190;-41
2022/05/03 03:52:17;;;;;;;7.83;5.57;;;7.90;99.90;;;;;;5016587;28;20662;-41
2022/05/03 03:54:44;;;;;;;10.07;6.33;;;7.80;99.90;;;;;;5015282;28;20189;-41
2022/05/03 03:57:10;;;;;;;7.33;6.03;;;7.80;99.90;;;;;;5015096;28;20212;-40
2022/05/03 03:59:37;;;;;;;9.00;6.10;;;7.80;99.90;;;;;;5015425;28;20213;-42
2022/05/03 04:02:03;;;;;;;9.77;6.27;;;7.70;99.90;;;;;;5015142;28;20178;-40
2022/05/03 04:04:31;;;;;;;10.47;6.60;;;7.70;99.90;;;;;;5015057;28;20186;-40
2022/05/03 04:06:57;;;;;;;8.67;5.33;;;7.70;99.90;;;;;;5016130;28;20197;-41
2022/05/03 04:09:23;;;;;;;7.47;5.77;;;7.60;99.90;;;;;;5016307;28;20304;-39
2022/05/03 04:11:48;;;;;;;8.90;5.87;;;7.60;99.90;;;;;;5016293;28;20260;-40
2022/05/03 04:14:15;;;;;;;13.20;6.23;;;7.50;99.90;;;;;;5016330;28;20186;-41
2022/05/03 04:16:42;;;;;;;10.73;6.17;;;7.50;99.90;;;;;;5016297;28;20212;-39
2022/05/03 04:19:08;;;;;;;11.80;5.83;;;7.50;99.90;;;;;;5014599;28;20296;-40
2022/05/03 04:21:34;;;;;;;9.37;5.97;;;7.50;99.90;;;;;;5016267;28;20174;-40
2022/05/03 04:24:00;;;;;;;7.17;5.47;;;7.50;99.90;;;;;;5014626;28;20184;-39
2022/05/03 04:26:26;;;;;;;12.20;6.83;;;7.50;99.90;;;;;;5015852;28;20185;-38
2022/05/03 04:29:00;;;;;;;9.60;6.00;;;7.50;99.90;;;;;;5014599;28;20182;-40
2022/05/03 04:31:30;;;;;;;10.07;5.50;;;7.50;99.90;;;;;;5016226;28;20661;-45
2022/05/03 04:33:56;;;;;;;9.90;5.97;;;7.40;99.90;;;;;;5017205;28;20708;-46
2022/05/03 04:36:22;;;;;;;7.77;5.97;;;7.40;99.90;;;;;;5015323;28;20181;-46
2022/05/03 04:38:49;;;;;;;8.63;5.73;;;7.40;99.90;;;;;;5017057;28;20202;-45
2022/05/03 04:41:15;;;;;;;10.27;6.60;;;7.40;99.90;;;;;;5016468;28;20184;-41
2022/05/03 04:43:41;;;;;;;9.17;5.90;;;7.40;99.90;;;;;;5016727;28;20173;-46
2022/05/03 04:46:07;;;;;;;9.03;7.37;;;7.40;99.90;;;;;;5014771;28;20178;-44
2022/05/03 04:48:33;;;;;;;7.37;5.67;;;7.40;99.90;;;;;;5017061;28;20235;-44
2022/05/03 04:50:59;;;;;;;9.73;5.57;;;7.40;99.90;;;;;;5016759;28;20603;-46
2022/05/03 04:53:24;;;;;;;11.67;6.33;;;7.40;99.90;;;;;;5015645;28;20186;-46
2022/05/03 04:55:51;;;;;;;7.57;5.70;;;7.30;99.90;;;;;;5017030;28;20181;-46
2022/05/03 04:58:16;;;;;;;11.53;6.23;;;7.30;99.90;;;;;;5016580;28;20231;-46
2022/05/03 05:00:42;;;;;;;8.13;5.90;;;7.40;99.90;;;;;;5016394;28;20657;-46
2022/05/03 05:03:08;;;;;;;7.67;6.00;;;7.40;99.90;;;;;;5016404;28;20253;-45
2022/05/03 05:05:34;;;;;;;7.00;5.37;;;7.30;99.90;;;;;;5016661;28;20201;-45
2022/05/03 05:08:07;;;;;;;9.77;5.10;;;7.40;99.90;;;;;;5014889;28;20209;-45
2022/05/03 05:10:33;;;;;;;7.10;5.23;;;7.40;99.90;;;;;;5016678;28;20204;-45
2022/05/03 05:13:00;;;;;;;14.90;6.53;;;7.40;99.90;;;;;;5016676;28;20197;-46
2022/05/03 05:15:26;;;;;;;8.23;5.60;;;7.40;99.90;;;;;;5016748;28;20192;-46
2022/05/03 05:17:57;;;;;;;11.40;5.50;;;7.40;99.90;;;;;;5016420;28;20669;-47
2022/05/03 05:20:24;;;;;;;11.93;6.27;;;7.50;99.90;;;;;;5016579;28;20181;-46
2022/05/03 05:22:50;;;;;;;8.90;5.30;;;7.50;99.90;;;;;;5015746;28;20212;-44
2022/05/03 05:25:16;;;;;;;10.63;5.87;;;7.60;99.90;;;;;;5014212;28;20677;-41
2022/05/03 05:27:42;;;;;;;9.17;5.77;;;7.60;99.90;;;;;;5014917;28;20196;-44
2022/05/03 05:30:08;;;;;;;9.00;5.33;;;7.60;99.90;;;;;;5014795;28;20174;-39
2022/05/03 05:32:34;;;;;;;10.27;4.90;;;7.60;99.90;;;;;;5014724;28;20207;-40
2022/05/03 05:35:01;;;;;;;8.50;5.10;;;7.70;99.90;;;;;;5013527;28;20214;-39
2022/05/03 05:37:26;;;;;;;12.13;5.47;;;7.70;99.90;;;;;;5014588;28;20266;-42
2022/05/03 05:39:52;;;;;;;8.03;5.27;;;7.80;99.90;;;;;;5014826;28;20261;-40
2022/05/03 05:42:18;;;;;;;6.57;4.93;;;7.90;99.90;;;;;;5014521;28;20210;-43
2022/05/03 05:44:43;;;;;;;9.73;5.80;;;7.90;99.90;;;;;;5015152;28;20178;-41
2022/05/03 05:47:09;;;;;;;7.47;5.57;;;8.00;99.90;;;;;;5014518;28;20197;-42
2022/05/03 05:49:35;;;;;;;6.47;5.27;;;8.00;99.90;;;;;;5014371;28;20640;-41
2022/05/03 05:54:45;;;;;;;7.73;5.00;;;8.10;99.90;;;;;;5014898;28;20176;-43
2022/05/03 05:57:10;;;;;;;10.33;5.30;;;8.20;99.90;;;;;;5014378;28;20197;-43
2022/05/03 05:59:36;;;;;;;8.53;5.33;;;8.30;99.90;;;;;;5013528;28;20678;-43
2022/05/03 06:02:02;;;;;;;7.57;5.13;;;8.40;99.90;;;;;;5014646;28;20165;-43
2022/05/03 06:04:28;;;;;;;6.80;4.70;;;8.50;99.90;;;;;;5013051;28;20264;-44
2022/05/03 06:06:55;;;;;;;7.30;5.00;;;8.60;99.90;;;;;;5014146;28;20219;-44
2022/05/03 06:09:21;;;;;;;5.47;4.37;;;8.70;99.90;;;;;;5013971;28;20187;-45
2022/05/03 06:11:47;;;;;;;9.07;6.20;;;8.80;99.90;;;;;;5014324;28;20204;-45
2022/05/03 06:14:13;;;;;;;9.60;5.40;;;8.80;99.90;;;;;;5014313;28;20182;-42
2022/05/03 06:16:49;;;;;;;6.83;5.17;;;9.00;99.90;;;;;;5014269;28;20205;-45
2022/05/03 06:19:15;;;;;;;12.40;5.37;;;9.00;99.90;;;;;;5013888;28;20219;-45
2022/05/03 06:21:40;;;;;;;8.70;5.53;;;9.10;99.90;;;;;;5013904;28;20252;-44
2022/05/03 06:24:06;;;;;;;8.07;5.63;;;9.20;99.90;;;;;;5014074;28;20188;-43
2022/05/03 06:26:32;;;;;;;6.53;4.93;;;9.40;99.90;;;;;;5013971;28;20198;-43
2022/05/03 06:28:58;;;;;;;6.63;5.33;;;9.40;99.90;;;;;;5013805;28;20185;-44
2022/05/03 06:31:24;;;;;;;9.00;5.07;;;9.50;99.90;;;;;;5014623;28;20181;-43
2022/05/03 06:33:50;;;;;;;10.53;5.30;;;9.60;99.90;;;;;;5013750;28;20204;-44
2022/05/03 06:36:17;;;;;;;8.27;5.07;;;9.60;99.90;;;;;;5013597;28;20242;-45
2022/05/03 06:38:43;;;;;;;7.13;4.90;;;9.80;99.90;;;;;;5013549;28;20292;-43
2022/05/03 06:41:09;;;;;;;6.43;4.53;;;9.80;99.90;;;;;;5013622;28;20178;-44
2022/05/03 06:43:35;;;;;;;7.20;4.50;;;9.90;99.90;;;;;;5013910;28;20181;-43
2022/05/03 06:46:01;;;;;;;6.53;4.80;;;9.90;99.90;;;;;;5014219;28;20654;-44
2022/05/03 06:48:27;;;;;;;12.70;4.43;;;10.00;99.90;;;;;;5013553;28;20251;-42
2022/05/03 06:50:52;;;;;;;8.23;4.47;;;10.00;99.90;;;;;;5013577;28;20185;-43
2022/05/03 06:53:18;;;;;;;8.47;4.83;;;10.00;99.90;;;;;;5013536;28;20663;-43
2022/05/03 06:55:43;;;;;;;6.03;4.57;;;10.20;99.90;;;;;;5013537;28;20218;-44
2022/05/03 06:58:09;;;;;;;6.80;4.53;;;10.20;99.90;;;;;;5013292;28;20288;-43
2022/05/03 07:00:35;;;;;;;10.50;4.30;;;10.30;99.90;;;;;;5013522;28;20191;-43
2022/05/03 07:03:00;;;;;;;9.23;4.50;;;10.50;99.90;;;;;;5013830;28;20635;-44
2022/05/03 07:05:26;;;;;;;6.13;4.50;;;10.60;99.90;;;;;;5013594;28;20231;-44
2022/05/03 07:07:52;;;;;;;8.57;3.87;;;10.70;99.90;;;;;;5013486;28;20205;-43
2022/05/03 07:10:18;;;;;;;5.20;3.63;;;10.80;99.90;;;;;;5014532;28;20177;-43
2022/05/03 07:12:45;;;;;;;5.03;3.77;;;10.90;99.90;;;;;;5017695;28;20192;-44
2022/05/03 07:15:11;;;;;;;6.30;4.20;;;11.00;99.90;;;;;;5016654;28;20192;-44
2022/05/03 07:23:06;;;;;;;6.70;4.20;;;11.30;99.90;;;;;;5017596;28;20615;-45
2022/05/03 07:25:32;;;;;;;4.80;3.67;;;11.40;99.90;;;;;;5017037;28;20219;-44
2022/05/03 07:27:59;;;;;;;6.07;3.57;;;11.50;99.90;;;;;;5017416;28;20308;-45
2022/05/03 07:30:25;;;;;;;4.13;3.30;;;11.70;99.90;;;;;;5017528;28;20205;-42
2022/05/03 07:32:50;;;;;;;5.77;3.40;;;11.70;99.90;;;;;;5018109;28;20190;-43
2022/05/03 07:35:16;;;;;;;6.23;4.07;;;11.80;99.90;;;;;;5016780;28;20177;-44
2022/05/03 07:37:42;;;;;;;5.13;2.90;;;11.90;99.90;;;;;;5016980;28;20205;-43
2022/05/03 07:40:09;;;;;;;4.70;3.00;;;12.00;99.90;;;;;;5016711;28;20625;-44
2022/05/03 07:42:35;;;;;;;3.93;3.23;;;12.00;99.90;;;;;;5017025;28;20189;-44
2022/05/03 07:45:01;;;;;;;7.03;3.23;;;12.10;99.90;;;;;;5016689;28;20227;-45
2022/05/03 07:47:27;;;;;;;6.37;3.23;;;12.20;99.90;;;;;;5015300;28;20202;-45
2022/05/03 07:49:53;;;;;;;5.17;3.40;;;12.30;99.90;;;;;;5015345;28;20192;-45
2022/05/03 07:52:19;;;;;;;4.23;3.13;;;12.40;99.90;;;;;;5015366;28;20185;-43
2022/05/03 07:54:44;;;;;;;5.10;3.03;;;12.60;99.90;;;;;;5015267;28;20550;-41
2022/05/03 07:57:12;;;;;;;5.53;3.50;;;12.70;99.90;;;;;;5016752;28;20194;-45
2022/05/03 07:59:40;;;;;;;4.10;3.23;;;12.80;99.90;;;;;;5015019;28;20220;-45
2022/05/03 08:02:07;;;;;;;5.77;3.30;;;13.00;99.90;;;;;;5015224;28;20178;-44
2022/05/03 08:04:33;;;;;;;7.47;3.07;;;13.10;99.90;;;;;;5016667;28;20653;-44
2022/05/03 08:06:59;;;;;;;10.37;3.60;;;13.20;99.90;;;;;;5016441;28;20198;-46
2022/05/03 08:09:25;;;;;;;4.33;3.10;;;13.30;99.90;;;;;;5016442;28;20222;-44
2022/05/03 08:11:52;;;;;;;6.63;3.37;;;13.40;99.90;;;;;;5016440;28;20188;-45
2022/05/03 08:14:17;;;;;;;6.00;2.97;;;13.40;99.90;;;;;;5015039;28;20709;-44
2022/05/03 08:16:43;;;;;;;3.53;2.77;;;13.40;99.90;;;;;;5016254;28;20304;-41
2022/05/03 08:19:08;;;;;;;4.63;3.20;;;13.60;99.90;;;;;;5016302;28;20297;-44
2022/05/03 08:21:35;;;;;;;3.37;2.67;;;13.60;99.90;;;;;;5013781;28;20208;-46
2022/05/03 08:24:02;;;;;;;3.53;3.03;;;13.50;99.90;;;;;;5015945;28;20228;-44
2022/05/03 08:26:29;;;;;;;7.57;2.73;;;13.60;99.90;;;;;;5014631;28;20187;-47
2022/05/03 08:28:55;;;;;;;4.73;2.83;;;13.60;99.90;;;;;;5014613;28;20185;-45
2022/05/03 08:31:20;;;;;;;3.63;2.73;;;13.70;99.90;;;;;;5016206;28;20251;-45
2022/05/03 08:33:47;;;;;;;6.13;3.50;;;13.70;99.90;;;;;;5016070;28;20182;-46
2022/05/03 08:36:13;;;;;;;6.03;3.00;;;13.80;99.90;;;;;;5014562;28;20660;-45
2022/05/03 08:44:08;;;;;;;2.97;2.60;;;14.00;99.90;;;;;;5016108;28;20601;-45
2022/05/03 08:46:36;;;;;;;3.53;2.40;;;14.20;99.90;;;;;;5015518;28;20204;-45
2022/05/03 08:49:04;;;;;;;5.53;2.73;;;14.20;99.90;;;;;;5014402;28;20185;-43
2022/05/03 08:51:31;;;;;;;5.27;2.80;;;14.30;99.90;;;;;;4998001;28;20185;-44
2022/05/03 08:53:59;;;;;;;3.17;2.30;;;14.30;99.90;;;;;;5014127;28;20216;-46
2022/05/03 08:56:25;;;;;;;5.20;2.30;;;14.30;99.90;;;;;;5016105;28;20235;-45
2022/05/03 08:58:51;;;;;;;2.70;2.40;;;14.40;99.90;;;;;;4997957;28;20308;-45
2022/05/03 09:01:18;;;;;;;2.90;2.10;;;14.50;99.90;;;;;;5015400;28;20225;-44
2022/05/03 09:03:44;;;;;;;2.57;2.17;;;14.70;99.90;;;;;;5015603;28;20235;-44
2022/05/03 09:06:10;;;;;;;3.33;2.43;;;14.90;99.90;;;;;;5015359;28;20268;-45
2022/05/03 09:08:39;;;;;;;6.70;2.43;;;15.00;99.90;;;;;;5015469;28;20189;-45
2022/05/03 09:11:18;;;;;;;5.27;2.73;;;15.10;99.90;;;;;;5015260;28;20178;-44
2022/05/03 09:13:45;;;;;;;4.53;2.60;;;15.20;99.90;;;;;;5015568;28;20268;-44
2022/05/03 09:16:16;;;;;;;5.37;2.67;;;15.10;99.90;;;;;;5014469;28;20311;-44
2022/05/03 09:18:43;;;;;;;2.63;2.20;;;15.20;99.90;;;;;;5015276;28;20204;-46
2022/05/03 09:24:11;;;;;;;3.13;2.80;;;15.20;99.90;;;;;;5015185;28;20219;-45
2022/05/03 09:26:40;;;;;;;2.80;2.43;;;15.20;99.90;;;;;;5013803;28;20665;-44
2022/05/03 09:29:09;;;;;;;6.17;2.40;;;15.20;99.90;;;;;;5015884;28;20216;-45
2022/05/03 09:31:48;;;;;;;4.60;2.43;;;15.30;99.90;;;;;;5014355;28;20660;-46
2022/05/03 09:34:19;;;;;;;3.13;2.40;;;15.40;99.90;;;;;;5016819;28;20189;-46
2022/05/03 09:36:47;;;;;;;2.93;2.23;;;15.50;99.90;;;;;;5014423;28;20205;-46
2022/05/03 09:39:23;;;;;;;6.67;2.47;;;15.50;99.90;;;;;;5014939;28;20248;-45
2022/05/03 09:42:12;;;;;;;2.83;2.00;;;15.60;99.90;;;;;;5015901;28;20264;-45
2022/05/03 09:44:50;;;;;;;2.40;2.20;;;15.70;99.90;;;;;;5015883;28;20216;-44
2022/05/03 09:47:17;;;;;;;8.23;2.10;;;15.80;99.90;;;;;;5015284;28;20209;-45
2022/05/03 09:49:43;;;;;;;2.13;1.90;;;15.90;99.90;;;;;;5015604;28;20189;-45
2022/05/03 09:52:40;;;;;;;2.30;2.00;;;16.00;99.90;;;;;;5014899;28;20193;-46
2022/05/03 09:55:08;;;;;;;3.10;2.07;;;16.10;99.90;;;;;;5015293;28;20188;-44
2022/05/03 09:57:38;;;;;;;2.43;2.00;;;16.30;99.90;;;;;;5015209;28;20312;-46
2022/05/03 10:00:07;;;;;;;2.53;2.00;;;16.30;99.90;;;;;;5015245;28;20278;-46
2022/05/03 10:02:34;;;;;;;2.20;2.00;;;16.20;99.90;;;;;;5015601;28;20185;-45
2022/05/03 10:05:00;;;;;;;3.93;2.13;;;16.30;99.90;;;;;;5015377;28;20189;-46
2022/05/03 10:07:27;;;;;;;2.03;1.80;;;16.30;99.90;;;;;;5014874;28;20212;-47
2022/05/03 10:09:53;;;;;;;3.00;2.13;;;16.30;99.90;;;;;;4996684;28;20705;-44
2022/05/03 10:12:19;;;;;;;3.87;2.00;;;16.40;99.90;;;;;;5014336;28;20265;-45
2022/05/03 10:14:47;;;;;;;2.77;2.23;;;16.50;99.90;;;;;;5014330;28;20220;-47
2022/05/03 10:20:42;;;;;;;3.07;2.73;;;16.50;99.90;;;;;;5013693;28;20216;-45
2022/05/03 10:23:33;;;;;;;3.30;2.17;;;16.60;99.60;;;;;;5013392;28;20185;-47
2022/05/03 10:26:03;;;;;;;6.03;2.37;;;16.60;99.90;;;;;;5014238;28;20170;-47
2022/05/03 10:29:09;;;;;;;2.50;2.13;;;16.60;99.60;;;;;;5014300;28;20292;-47
2022/05/03 10:31:53;;;;;;;4.93;2.30;;;16.70;99.90;;;;;;5016019;28;20660;-46
2022/05/03 10:34:40;;;;;;;2.83;2.53;;;16.70;99.90;;;;;;5015875;28;20157;-47
2022/05/03 10:37:11;;;;;;;3.63;2.57;;;16.80;99.70;;;;;;5014200;28;20212;-47
2022/05/03 10:39:51;;;;;;;3.77;2.30;;;16.80;99.70;;;;;;5015525;28;20201;-47
2022/05/03 10:42:20;;;;;;;6.57;2.43;;;16.70;99.90;;;;;;5015165;28;20183;-47
2022/05/03 10:44:52;;;;;;;2.80;2.50;;;16.80;99.90;;;;;;5015346;28;20235;-47
2022/05/03 10:47:20;;;;;;;3.70;2.47;;;16.90;99.90;;;;;;5015193;28;20673;-47
2022/05/03 10:50:07;;;;;;;3.67;2.80;;;17.00;99.80;;;;;;5015705;28;20188;-49
2022/05/03 10:52:33;;;;;;;2.93;2.57;;;17.10;99.90;;;;;;5016886;28;20227;-48
2022/05/03 10:55:08;;;;;;;3.40;3.10;;;17.10;99.90;;;;;;5017743;28;20185;-47
2022/05/03 10:58:12;;;;;;;3.80;2.73;;;17.10;99.40;;;;;;5017263;28;20197;-47
2022/05/03 11:01:05;;;;;;;5.70;3.50;;;17.20;99.90;;;;;;5015656;28;20231;-47
2022/05/03 11:03:39;;;;;;;4.17;3.13;;;17.40;99.90;;;;;;5016386;28;20185;-46
2022/05/03 11:06:22;;;;;;;2.87;2.60;;;17.40;99.90;;;;;;5016946;28;20194;-46
2022/05/03 11:11:38;;;;;;;3.40;3.10;;;17.40;99.90;;;;;;5017777;28;20208;-47
2022/05/03 11:14:20;;;;;;;7.67;3.33;;;17.40;98.60;;;;;;5016960;28;20702;-49
2022/05/03 11:17:01;;;;;;;6.07;3.30;;;17.40;99.50;;;;;;5017233;28;20284;-45
2022/05/03 11:19:28;;;;;;;4.33;2.80;;;17.40;99.90;;;;;;5015959;28;20272;-48
2022/05/03 11:21:55;;;;;;;4.67;2.90;;;17.50;99.90;;;;;;5017588;28;20196;-48
2022/05/03 11:24:25;;;;;;;4.13;2.83;;;17.70;99.20;;;;;;5017274;28;20170;-46
2022/05/03 11:26:53;;;;;;;3.83;2.97;;;17.70;99.00;;;;;;5015959;28;20791;-48
2022/05/03 11:29:19;;;;;;;3.27;2.60;;;17.70;98.00;;;;;;5015835;28;20192;-46
2022/05/03 11:31:50;;;;;;;3.77;2.47;;;17.60;97.20;;;;;;5017320;28;20178;-47
2022/05/03 11:34:17;;;;;;;3.37;2.27;;;17.70;98.90;;;;;;5015868;28;20182;-46
2022/05/03 11:36:46;;;;;;;2.60;2.40;;;17.70;98.70;;;;;;5016564;28;20280;-46
2022/05/03 11:39:13;;;;;;;2.67;2.47;;;18.00;99.90;;;;;;5014922;28;20259;-46
2022/05/03 11:41:39;;;;;;;3.30;2.30;;;18.10;97.30;;;;;;5016759;28;20173;-48
2022/05/03 11:44:05;;;;;;;2.87;2.57;;;17.90;97.00;;;;;;5015447;28;20190;-48
2022/05/03 11:46:31;;;;;;;2.70;2.00;;;18.00;97.10;;;;;;5016557;28;20197;-48
2022/05/03 11:49:03;;;;;;;2.90;2.40;;;17.90;97.90;;;;;;5016077;28;20204;-47
2022/05/03 11:57:26;;;;;;;2.80;1.97;;;18.00;96.70;;;;;;5018105;28;20200;-47
2022/05/03 11:59:55;;;;;;;1.97;1.83;;;18.00;97.40;;;;;;5018064;28;20236;-49
2022/05/03 12:02:31;;;;;;;2.40;2.20;;;18.00;97.20;;;;;;5018277;28;20652;-47
2022/05/03 12:05:12;;;;;;;3.00;2.10;;;18.10;97.40;;;;;;5017363;28;20181;-46
2022/05/03 12:07:52;;;;;;;1.50;1.40;;;18.20;98.70;;;;;;5019400;28;20704;-47
2022/05/03 12:10:30;;;;;;;2.27;1.80;;;18.40;96.50;;;;;;5017805;28;20177;-48
2022/05/03 12:13:17;;;;;;;2.10;1.90;;;18.30;97.00;;;;;;5017513;28;20312;-47
2022/05/03 12:15:56;;;;;;;2.40;2.20;;;18.30;95.80;;;;;;5017467;28;20257;-47
2022/05/03 12:18:25;;;;;;;3.57;2.33;;;18.20;96.80;;;;;;5018502;28;20296;-47
2022/05/03 12:20:54;;;;;;;3.70;2.00;;;18.20;97.30;;;;;;5018789;28;20173;-47
2022/05/03 12:23:25;;;;;;;2.40;2.20;;;18.30;97.60;;;;;;5018453;28;20170;-46
2022/05/03 12:25:56;;;;;;;3.70;2.50;;;18.40;96.90;;;;;;5018529;28;20691;-47
2022/05/03 12:28:41;;;;;;;2.90;2.10;;;18.50;97.10;;;;;;5016623;28;20642;-48
2022/05/03 12:31:09;;;;;;;2.93;2.53;;;18.60;97.10;;;;;;5016242;28;20689;-48
2022/05/03 12:33:46;;;;;;;3.73;2.80;;;18.70;98.50;;;;;;5015799;28;20181;-47
2022/05/03 12:36:29;;;;;;;3.07;2.67;;;18.80;96.10;;;;;;5015987;28;20241;-46
2022/05/03 12:38:55;;;;;;;4.93;2.47;;;18.70;96.80;;;;;;5014435;28;20198;-47
2022/05/03 12:41:29;;;;;;;3.27;2.50;;;18.70;97.60;;;;;;5016000;28;20181;-50
2022/05/03 12:44:12;;;;;;;2.50;2.20;;;18.60;96.80;;;;;;5017052;28;20240;-48
2022/05/03 12:46:39;;;;;;;2.40;2.17;;;18.60;97.90;;;;;;5016170;28;20204;-42
2022/05/03 12:49:11;;;;;;;3.23;2.93;;;18.70;97.70;;;;;;5015981;28;20225;-43
2022/05/03 12:51:39;;;;;;;4.60;3.20;;;18.80;97.10;;;;;;5015788;28;20173;-44
2022/05/03 12:54:05;;;;;;;3.47;3.17;;;18.80;96.70;;;;;;5015605;28;20170;-42
2022/05/03 12:59:16;;;;;;;5.50;2.70;;;18.80;98.10;;;;;;5015536;28;20209;-42
2022/05/03 13:01:42;;;;;;;5.23;2.53;;;18.80;96.60;;;;;;5015720;28;20618;-41
2022/05/03 13:04:09;;;;;;;7.27;3.07;;;18.90;98.10;;;;;;5015751;28;20648;-44
2022/05/03 13:06:35;;;;;;;4.40;2.53;;;19.00;98.40;;;;;;5013922;28;20578;-41
2022/05/03 13:09:03;;;;;;;3.23;2.93;;;19.10;97.20;;;;;;5013467;28;20185;-44
2022/05/03 13:11:29;;;;;;;3.23;2.93;;;19.00;97.50;;;;;;5015162;28;20191;-40
2022/05/03 13:13:55;;;;;;;5.37;2.80;;;18.90;96.20;;;;;;5015386;28;20182;-42
2022/05/03 13:16:21;;;;;;;3.73;3.27;;;18.90;97.90;;;;;;5015104;28;20703;-43
2022/05/03 13:18:46;;;;;;;3.13;2.83;;;19.10;97.80;;;;;;5015211;28;20219;-42
2022/05/03 13:21:12;;;;;;;2.60;2.40;;;19.30;98.30;;;;;;5015531;28;20170;-42
2022/05/03 13:23:38;;;;;;;2.70;2.40;;;19.40;97.30;;;;;;5013618;28;20181;-42
2022/05/03 13:26:03;;;;;;;4.73;2.40;;;19.40;96.40;;;;;;5015143;28;20535;-43
2022/05/03 13:28:29;;;;;;;2.63;2.43;;;19.20;95.60;;;;;;5014717;28;20233;-44
2022/05/03 13:30:55;;;;;;;2.33;2.13;;;19.10;97.20;;;;;;5015163;28;20181;-41
2022/05/03 13:33:21;;;;;;;2.87;2.60;;;19.20;97.60;;;;;;5015105;28;20177;-42
2022/05/03 13:41:15;;;;;;;4.00;2.73;;;19.30;97.10;;;;;;5014635;28;20224;-42
2022/05/03 13:43:41;;;;;;;2.50;2.30;;;19.30;97.00;;;;;;5014522;28;20174;-42
2022/05/03 13:46:06;;;;;;;2.40;2.20;;;19.20;96.20;;;;;;5014875;28;20277;-43
2022/05/03 13:48:32;;;;;;;2.47;2.20;;;19.20;96.00;;;;;;5014353;28;20205;-42
2022/05/03 13:50:57;;;;;;;4.60;2.27;;;19.10;95.30;;;;;;5014695;28;20184;-42